Latest Weather Observations for Borroloola

IDD60801

Issued at 10:11 am CST Saturday 15 December 2018 (issued every 10 minutes, with the page automatically refreshed every 10 minutes)

About weather observations | Map of weather stations | Latest weather observations for NT | Other Formats
Station Details ID: 014723 Name: BORROLOOLA AIRPORT Lat: -16.08 Lon: 136.30 Height: 16.1 m
Data from the previous 72 hours. | See also: Recent months at Borroloola
Date/Time
CST
Temp
°C
App
Temp
°C
Dew
Point
°C
Rel
Hum
%
Delta-T
°C
Wind Press
QNH
hPa
Press
MSL
hPa
Rain since
9am
mm
Dir  Spd
km/h
Gust
km/h
Spd
kts
Gust
kts
15/10:00am 31.3 33.5 20.3 52 7.3 ENE 9 17 5 9 1006.3 1006.2 0.2
15/09:30am 30.6 33.1 21.1 57 6.4 NE 9 17 5 9 1006.3 1006.2 0.2
15/09:00am 30.2 32.5 21.3 59 6.0 E 11 15 6 8 1006.3 1006.2 3.8
15/08:30am 29.3 32.4 21.5 63 5.2 SSE 7 11 4 6 1006.4 1006.3 3.8
15/08:00am 28.4 31.6 21.7 67 4.5 E 7 13 4 7 1006.1 1006.0 3.8
15/07:30am 27.5 30.9 22.7 75 3.3 SE 9 11 5 6 1006.0 1005.9 3.8
15/07:00am 26.5 31.8 24.9 91 1.1 SE 6 9 3 5 1005.9 1005.8 3.8
15/06:30am 25.3 30.4 24.6 96 0.5 SSE 6 7 3 4 1005.9 1005.8 3.8
15/06:00am 24.8 30.5 23.8 94 0.7 CALM 0 0 0 0 1005.6 1005.5 3.8
15/05:30am 25.1 30.9 23.9 93 0.8 CALM 0 0 0 0 1005.2 1005.1 3.8
15/05:00am 25.0 30.6 23.6 92 1.0 CALM 0 0 0 0 1004.5 1004.4 3.8
15/04:30am 25.1 29.6 23.7 92 1.0 S 6 6 3 3 1004.0 1003.9 3.8
15/04:00am 25.2 29.7 23.6 91 1.1 ENE 6 7 3 4 1003.8 1003.7 3.8
15/03:30am 25.6 31.3 23.8 90 1.2 CALM 0 0 0 0 1003.9 1003.8 3.8
15/03:00am 25.6 30.4 23.5 88 1.4 NNE 4 9 2 5 1003.9 1003.8 3.8
15/02:30am 25.7 29.7 23.7 89 1.4 SE 9 11 5 6 1003.8 1003.7 3.8
15/02:00am 25.8 30.3 24.0 90 1.2 SE 7 9 4 5 1003.7 1003.6 3.8
15/01:30am 25.9 31.7 23.9 89 1.4 CALM 0 0 0 0 1003.9 1003.8 3.8
15/01:00am 25.9 31.4 23.4 86 1.7 CALM 0 0 0 0 1003.9 1003.8 3.8
15/12:30am 26.2 31.9 23.7 86 1.7 CALM 0 0 0 0 1004.3 1004.2 3.8
15/12:00am 26.5 30.8 23.6 84 2.0 NNW 7 7 4 4 1004.7 1004.6 3.8
 
Date/Time
CST
Temp
°C
App
Temp
°C
Dew
Point
°C
Rel
Hum
%
Delta-T
°C
Wind Press
QNH
hPa
Press
MSL
hPa
Rain since
9am
mm
Dir  Spd
km/h
Gust
km/h
Spd
kts
Gust
kts
14/11:30pm 26.8 32.5 23.7 83 2.1 CALM 0 0 0 0 1004.9 1004.8 3.8
14/11:00pm 27.0 31.4 23.5 81 2.4 NNE 6 7 3 4 1004.5 1004.4 3.8
14/10:30pm 27.2 32.2 23.2 79 2.7 NE 2 7 1 4 1004.2 1004.1 3.8
14/10:00pm 27.3 33.6 24.7 86 1.8 CALM 0 0 0 0 1004.1 1004.0 3.8
14/09:30pm 27.7 33.7 24.3 82 2.4 CALM 0 0 0 0 1003.9 1003.8 3.8
14/09:00pm 28.0 32.4 23.8 78 2.9 NE 7 7 4 4 1003.5 1003.4 3.8
14/08:30pm 28.0 32.5 24.0 79 2.8 NE 7 9 4 5 1003.0 1002.9 3.8
14/08:00pm 28.2 32.3 24.0 78 2.9 NE 9 13 5 7 1002.9 1002.8 3.8
14/07:30pm 28.5 32.8 24.3 78 2.9 N 9 11 5 6 1002.6 1002.4 3.8
14/07:00pm 28.7 33.3 24.7 79 2.8 N 9 11 5 6 1002.3 1002.1 3.8
14/06:30pm 28.8 32.9 24.6 78 2.9 NNE 11 17 6 9 1001.8 1001.6 3.8
14/06:00pm 28.5 30.8 24.5 79 2.8 NNE 20 26 11 14 1000.9 1000.7 3.8
14/05:30pm 28.3 30.2 23.7 76 3.2 NE 20 30 11 16 1001.0 1000.8 3.6
14/05:23pm 29.4 30.2 22.4 66 4.8 NE 22 39 12 21 1000.8 1000.6 1.4
14/05:00pm 34.5 36.5 22.9 51 8.0 NW 17 22 9 12 999.7 999.5 0.0
14/04:30pm 35.3 37.7 21.6 45 9.4 S 11 35 6 19 999.8 999.6 0.0
14/04:00pm 37.1 38.9 20.4 37 11.3 ESE 11 28 6 15 999.2 999.0 0.0
14/03:30pm 36.8 38.1 20.1 37 11.3 SE 13 24 7 13 999.3 999.1 0.0
14/03:00pm 36.9 37.9 20.2 37 11.3 SSE 15 20 8 11 999.5 999.3 0.0
14/02:30pm 36.5 36.2 20.3 38 10.9 SSE 22 30 12 16 999.8 999.6 0.0
14/02:00pm 35.2 37.2 21.5 45 9.3 SE 13 17 7 9 1000.2 1000.0 0.0
14/01:30pm 34.9 36.2 20.8 43 9.5 SE 15 24 8 13 1000.7 1000.5 0.0
14/01:00pm 34.5 34.8 20.8 44 9.2 SE 20 30 11 16 1001.1 1000.9 0.0
14/12:30pm 35.0 35.5 22.0 46 8.9 SSE 22 30 12 16 1001.6 1001.4 0.0
14/12:00pm 33.9 36.1 23.3 54 7.4 S 17 26 9 14 1002.1 1001.9 0.0
14/11:30am 32.8 33.7 22.0 53 7.4 S 20 28 11 15 1002.7 1002.5 0.0
14/11:00am 32.4 32.7 22.2 55 7.0 SSE 24 32 13 17 1003.2 1003.1 0.0
14/10:30am 31.3 31.5 22.0 57 6.3 S 24 35 13 19 1003.3 1003.2 0.0
14/10:00am 31.8 33.0 22.5 58 6.4 S 20 28 11 15 1003.5 1003.4 0.0
14/09:30am 29.8 30.3 22.0 63 5.3 S 22 30 12 16 1003.8 1003.7 0.0
14/09:00am 28.9 29.7 22.4 68 4.4 S 22 33 12 18 1004.1 1004.0 14.6
14/08:30am 28.2 28.6 21.7 68 4.4 SSE 22 30 12 16 1003.8 1003.7 14.6
14/08:00am 28.7 29.0 22.2 68 4.4 S 24 32 13 17 1003.3 1003.2 14.6
14/07:30am 27.5 27.4 21.5 70 4.0 S 24 39 13 21 1003.4 1003.3 14.4
14/07:00am 27.0 27.3 21.5 72 3.7 SSW 22 28 12 15 1003.7 1003.6 14.4
14/06:30am 26.6 27.3 21.6 74 3.3 SSW 20 30 11 16 1003.2 1003.1 14.4
14/06:00am 26.5 27.8 21.7 75 3.2 S 17 24 9 13 1002.4 1002.2 14.4
14/05:30am 26.5 27.6 21.9 76 3.1 S 19 22 10 12 1001.8 1001.6 14.4
14/05:00am 26.6 27.7 22.4 78 2.8 SSW 20 28 11 15 1001.9 1001.7 14.4
14/04:30am 26.6 28.1 22.7 79 2.6 SSW 19 30 10 16 1002.1 1001.9 14.4
14/04:00am 26.5 27.9 22.8 80 2.5 S 20 26 11 14 1001.0 1000.8 14.4
14/03:30am 26.2 28.2 22.9 82 2.2 S 17 24 9 13 1000.5 1000.3 14.4
14/03:00am 26.1 28.4 22.8 82 2.2 S 15 20 8 11 1000.7 1000.5 14.4
14/02:30am 26.1 27.7 22.8 82 2.2 S 19 22 10 12 1001.0 1000.8 14.4
14/02:00am 25.9 28.4 23.2 85 1.8 S 15 20 8 11 1001.3 1001.1 14.4
14/01:30am 25.8 28.0 23.3 86 1.7 S 17 22 9 12 1001.4 1001.2 14.4
14/01:00am 26.1 28.8 23.4 85 1.8 SSE 15 24 8 13 1001.4 1001.2 14.4
14/12:30am 25.9 27.8 23.4 86 1.7 S 19 28 10 15 1001.4 1001.2 14.4
14/12:00am 25.6 27.5 23.7 89 1.3 SSW 20 26 11 14 1002.3 1002.1 14.4
 
Date/Time
CST
Temp
°C
App
Temp
°C
Dew
Point
°C
Rel
Hum
%
Delta-T
°C
Wind Press
QNH
hPa
Press
MSL
hPa
Rain since
9am
mm
Dir  Spd
km/h
Gust
km/h
Spd
kts
Gust
kts
13/11:30pm 25.7 28.1 23.7 89 1.4 SSE 17 24 9 13 1002.8 1002.6 14.0
13/11:00pm 25.6 28.0 23.7 89 1.3 SSE 17 22 9 12 1002.7 1002.5 13.8
13/10:30pm 25.7 27.6 23.4 87 1.6 SSE 19 30 10 16 1003.0 1002.9 13.6
13/10:00pm 26.0 27.5 23.1 84 2.0 SE 20 32 11 17 1002.6 1002.4 13.6
13/09:30pm 26.1 28.1 23.0 83 2.1 SE 17 24 9 13 1002.5 1002.3 13.6
13/09:00pm 26.0 27.6 22.9 83 2.1 SE 19 26 10 14 1001.9 1001.7 13.6
13/08:30pm 26.0 27.0 22.9 83 2.1 SE 22 35 12 19 1001.9 1001.7 13.6
13/08:00pm 26.0 25.5 22.9 83 2.1 SSE 30 43 16 23 1002.0 1001.8 13.6
13/07:30pm 25.7 26.5 23.2 86 1.7 SE 24 35 13 19 1001.4 1001.2 13.6
13/07:00pm 25.7 26.6 23.4 87 1.6 SE 24 35 13 19 1000.7 1000.5 13.6
13/06:30pm 25.6 26.7 23.7 89 1.3 SE 24 35 13 19 1000.2 1000.0 13.6
13/06:00pm 25.4 27.0 23.8 91 1.1 SE 22 30 12 16 1000.7 1000.5 13.4
13/05:30pm 25.4 26.5 23.6 90 1.2 SE 24 32 13 17 1001.3 1001.1 13.2
13/05:00pm 25.3 27.2 23.7 91 1.1 SSE 20 28 11 15 1001.6 1001.4 13.0
13/04:30pm 24.9 26.8 23.5 92 1.0 SE 19 26 10 14 1001.6 1001.4 13.0
13/04:00pm 24.9 27.6 23.5 92 1.0 ESE 15 20 8 11 1001.2 1001.0 12.6
13/03:30pm 24.8 26.1 23.4 92 1.0 SE 22 32 12 17 1001.3 1001.1 11.8
13/03:00pm 24.5 25.5 23.5 94 0.7 SE 24 35 13 19 1001.6 1001.4 11.8
13/02:30pm 24.9 27.5 23.9 94 0.7 SE 17 24 9 13 1002.0 1001.8 9.6
13/02:00pm 25.0 28.4 24.0 94 0.7 SE 13 19 7 10 1002.2 1002.0 9.0
13/01:30pm 24.9 26.8 23.7 93 0.8 E 20 28 11 15 1002.9 1002.8 7.8
13/01:00pm 25.1 26.9 23.5 91 1.1 E 20 32 11 17 1003.0 1002.9 4.4
13/12:30pm 25.2 27.6 23.6 91 1.1 ESE 17 26 9 14 1003.1 1003.0 3.2
13/12:00pm 25.4 27.3 23.5 89 1.3 E 19 24 10 13 1003.4 1003.3 2.0
13/11:30am 25.6 27.7 23.8 90 1.2 E 19 28 10 15 1003.1 1003.0 1.2
13/11:00am 25.8 27.7 23.8 89 1.4 E 20 32 11 17 1003.3 1003.2 0.6
13/10:30am 26.1 28.0 23.8 87 1.6 E 20 28 11 15 1003.4 1003.3 0.4
13/10:00am 26.0 27.1 23.7 87 1.6 E 24 37 13 20 1003.1 1003.0 0.4
13/09:30am 26.2 28.1 24.4 90 1.2 E 22 33 12 18 1003.1 1003.0 0.0
13/09:00am 25.8 26.8 24.2 91 1.1 E 26 39 14 21 1003.0 1002.9 30.8
13/08:30am 25.4 26.2 23.8 91 1.1 ESE 26 35 14 19 1002.8 1002.6 30.2
13/08:00am 25.2 25.3 23.3 89 1.3 E 28 39 15 21 1003.0 1002.9 28.6
13/07:30am 25.5 26.2 23.7 90 1.2 E 26 35 14 19 1002.4 1002.2 27.6
13/07:00am 25.6 26.4 23.8 90 1.2 ESE 26 35 14 19 1002.4 1002.2 26.8
13/06:30am 25.5 26.7 23.9 91 1.1 ESE 24 35 13 19 1001.8 1001.6 26.6
13/06:00am 25.2 27.2 24.0 93 0.8 SE 20 28 11 15 1001.9 1001.7 25.6
13/05:30am 25.1 26.6 23.7 92 1.0 SE 22 32 12 17 1001.8 1001.6 24.4
13/05:00am 25.3 26.4 23.7 91 1.1 SE 24 33 13 18 1001.8 1001.6 24.0
13/04:30am 25.1 26.0 23.9 93 0.8 SE 26 37 14 20 1001.6 1001.4 23.6
13/04:00am 25.0 26.7 24.1 95 0.6 SE 22 30 12 16 1001.1 1000.9 23.2
13/03:30am 24.9 27.1 24.0 95 0.6 SE 19 28 10 15 1001.2 1001.0 22.4
13/03:00am 25.0 27.1 24.1 95 0.6 ESE 20 30 11 16 1001.9 1001.7 20.2
13/02:30am 25.5 28.4 23.9 91 1.1 ESE 15 22 8 12 1001.7 1001.5 12.2
13/02:00am 25.4 27.8 24.2 93 0.8 ESE 19 26 10 14 1001.9 1001.7 11.8
13/01:30am 26.2 27.5 24.1 88 1.5 SSE 24 32 13 17 1001.5 1001.3 4.6
13/01:00am 25.9 27.1 23.9 89 1.4 SE 24 28 13 15 1001.7 1001.5 4.0
13/12:30am 26.3 27.6 24.0 87 1.6 SE 24 37 13 20 1002.2 1002.0 3.8
13/12:00am 27.3 28.0 23.7 81 2.5 SE 26 35 14 19 1002.5 1002.3 3.4
 
Date/Time
CST
Temp
°C
App
Temp
°C
Dew
Point
°C
Rel
Hum
%
Delta-T
°C
Wind Press
QNH
hPa
Press
MSL
hPa
Rain since
9am
mm
Dir  Spd
km/h
Gust
km/h
Spd
kts
Gust
kts
12/11:30pm 27.2 29.4 23.9 82 2.3 SE 19 26 10 14 1003.3 1003.2 3.4
12/11:00pm 27.5 29.0 23.7 80 2.6 SE 22 28 12 15 1003.5 1003.4 3.4
12/10:30pm 27.3 29.2 23.7 81 2.5 SSE 20 26 11 14 1003.0 1002.9 3.4
12/10:00pm 27.3 29.2 23.5 80 2.6 ESE 19 26 10 14 1003.2 1003.1 3.4
12/09:30pm 27.2 28.7 23.7 81 2.4 SE 22 30 12 16 1002.7 1002.5 3.4
12/09:00pm 28.0 29.2 23.2 75 3.3 ESE 22 32 12 17 1003.2 1003.1 3.4
12/08:30pm 28.5 27.5 22.7 71 4.0 SE 32 48 17 26 1002.5 1002.3 3.4
12/08:04pm 28.6 28.4 22.8 71 3.9 SE 28 46 15 25 1002.1 1001.9 3.4
12/08:00pm 28.5 28.8 23.0 72 3.8 ESE 26 43 14 23 1002.1 1001.9 3.4
12/07:30pm 28.8 27.9 22.1 67 4.5 SE 30 43 16 23 1002.3 1002.1 3.4
12/07:03pm 29.3 28.4 21.5 63 5.2 SE 28 46 15 25 1002.2 1002.0 3.4
12/07:00pm 29.3 28.4 21.5 63 5.2 SE 28 44 15 24 1002.2 1002.0 3.4
12/06:45pm 29.8 28.9 21.5 61 5.6 SE 28 48 15 26 1001.9 1001.7 3.4
12/06:30pm 30.0 29.5 21.4 60 5.8 SE 26 41 14 22 1001.9 1001.7 3.4
12/06:07pm 30.1 28.7 21.2 59 6.0 SE 30 48 16 26 1002.3 1002.1 3.4
12/06:00pm 30.0 28.2 21.1 59 6.0 SE 32 44 17 24 1002.1 1001.9 3.4
12/05:30pm 30.0 28.8 20.8 57 6.1 SE 28 41 15 22 1002.1 1001.9 3.4
12/05:00pm 30.0 28.6 20.5 56 6.3 ESE 28 43 15 23 1002.0 1001.8 3.4
12/04:30pm 30.3 29.8 20.8 56 6.3 SE 24 37 13 20 1001.9 1001.7 3.4
12/04:00pm 30.2 30.8 21.3 59 6.0 ESE 20 33 11 18 1002.3 1002.1 3.4
12/03:30pm 30.4 29.6 20.9 57 6.4 ESE 26 35 14 19 1002.0 1001.8 3.4
12/03:00pm 30.8 29.5 21.3 57 6.4 SE 30 44 16 24 1002.0 1001.8 3.4
12/02:30pm 31.4 31.5 21.8 56 6.5 SE 24 35 13 19 1002.3 1002.1 3.4
12/02:00pm 31.4 32.8 23.5 63 5.5 SE 22 33 12 18 1002.7 1002.5 3.4
12/01:30pm 31.1 32.3 23.2 63 5.5 ESE 22 37 12 20 1003.1 1003.0 3.4
12/01:00pm 30.6 32.0 23.5 66 4.9 SE 22 37 12 20 1003.5 1003.4 3.4
12/12:30pm 29.7 31.0 23.4 69 4.3 ESE 22 35 12 19 1003.9 1003.8 3.4
12/12:00pm 29.2 32.8 25.6 81 2.6 ESE 17 26 9 14 1004.1 1004.0 3.4
12/11:30am 31.8 32.4 22.8 59 6.2 ESE 24 33 13 18 1004.0 1003.9 0.0
12/11:00am 32.4 33.2 22.5 56 6.8 SE 22 28 12 15 1004.2 1004.1 0.0
12/10:30am 32.0 33.3 22.7 58 6.4 SE 20 28 11 15 1004.7 1004.6 0.0

Other Formats:

Comma delimited format used in spreadsheet applications
http://www.bom.gov.au/fwo/IDD60801/IDD60801.94152.axf

JavaScript Object Notation format (JSON) in row-major order
http://www.bom.gov.au/fwo/IDD60801/IDD60801.94152.json